Montalba, Texas
Current Conditions -  °F | °C
As of 2:15 PM on Wednesday 28 Jan 2015 (Local Time) from KPSN Reporting Station
Clear Clear  
Wind Chill: 78°   Ceiling: Unl
Heat Index: 78°   Visibility: 10mi
Dew Point: 44°   Wind: 15mph
Humidity: 29%   Direction: 190°S
Pressure: 30.09"   Gusts: 21mph
Location:  31.88°N, 95.73°W
Report Text: KPSN 282015Z AUTO 19013G18KT 10SM CLR 25/06 A3009 RMK AO2 T02560065
Loading
Personal Weather Stations






























Interactive Weather Map New forecast layout! Learn more

10-Day Weather Forecast

Advertisements
Track Severe Weather on mobile